Time;durP1;ratioP1;P1;durP2;ratioP2;P2;SDS_P1;SDS_P2;PMS_P1;PMS_P2;Temp;Humidity;BMP_temperature;BMP_pressure;BME280_temperature;BME280_humidity;BME280_pressure;Samples;Min_cycle;Max_cycle;Signal;HPM_P1;HPM_P2
2021/11/21 00:01:40;;;;;;;15.73;9.45;;;2.20;99.90;;;;;;5042932;28;20766;-73
2021/11/21 00:04:12;;;;;;;15.75;10.75;;;2.10;99.90;;;;;;5035854;28;20515;-73
2021/11/21 00:06:39;;;;;;;13.75;10.00;;;2.10;99.90;;;;;;5049375;28;20068;-73
2021/11/21 00:09:10;;;;;;;13.23;9.40;;;2.00;99.90;;;;;;5049168;28;20045;-73
2021/11/21 00:11:42;;;;;;;13.60;9.70;;;2.00;99.90;;;;;;5033708;28;20098;-73
2021/11/21 00:14:09;;;;;;;11.65;8.57;;;2.00;99.90;;;;;;5051065;28;20467;-73
2021/11/21 00:16:37;;;;;;;13.63;9.57;;;1.90;99.90;;;;;;5054136;28;20037;-73
2021/11/21 00:19:09;;;;;;;12.82;9.05;;;1.90;99.90;;;;;;5050425;28;20051;-75
2021/11/21 00:21:36;;;;;;;14.18;9.60;;;1.90;99.90;;;;;;5048574;28;20106;-74
2021/11/21 00:24:03;;;;;;;12.13;9.18;;;1.80;99.90;;;;;;5048837;28;20094;-75
2021/11/21 00:26:35;;;;;;;11.57;8.13;;;1.80;99.90;;;;;;5033863;28;20040;-75
2021/11/21 00:29:02;;;;;;;11.43;8.43;;;1.70;99.90;;;;;;5049283;28;20072;-73
2021/11/21 00:31:33;;;;;;;11.13;8.27;;;1.70;99.90;;;;;;5048686;28;20049;-73
2021/11/21 00:34:00;;;;;;;11.57;8.43;;;1.60;99.90;;;;;;5049901;28;20073;-73
2021/11/21 00:36:27;;;;;;;13.30;9.77;;;1.60;99.90;;;;;;5048638;28;20063;-73
2021/11/21 00:38:59;;;;;;;13.82;10.30;;;1.50;99.90;;;;;;5046580;28;20041;-72
2021/11/21 00:41:30;;;;;;;13.32;8.75;;;1.50;99.90;;;;;;5050429;28;20041;-73
2021/11/21 00:44:04;;;;;;;11.27;8.48;;;1.50;99.90;;;;;;5049212;28;20041;-73
2021/11/21 00:46:35;;;;;;;11.50;8.60;;;1.40;99.90;;;;;;5046063;28;20048;-73
2021/11/21 00:49:06;;;;;;;14.27;9.10;;;1.40;99.90;;;;;;5034874;28;20044;-72
2021/11/21 00:51:37;;;;;;;13.95;8.52;;;1.30;99.90;;;;;;5052602;28;20136;-73
2021/11/21 00:54:23;;;;;;;13.60;9.53;;;1.30;99.90;;;;;;5034732;28;20646;-73
2021/11/21 00:56:51;;;;;;;15.70;10.57;;;1.20;99.90;;;;;;5048900;28;20127;-75
2021/11/21 00:59:19;;;;;;;14.70;9.88;;;1.20;99.90;;;;;;5051352;28;20140;-73
2021/11/21 01:01:52;;;;;;;14.07;9.55;;;1.20;99.90;;;;;;5050700;28;20079;-74
2021/11/21 01:04:19;;;;;;;15.27;10.57;;;1.20;99.90;;;;;;5039488;28;20131;-75
2021/11/21 01:06:47;;;;;;;12.95;9.57;;;1.30;99.90;;;;;;5059802;28;20217;-73
2021/11/21 01:09:15;;;;;;;15.00;9.90;;;1.30;99.90;;;;;;5063480;28;20111;-73
2021/11/21 01:11:42;;;;;;;16.30;10.48;;;1.30;99.90;;;;;;5053489;28;20052;-73
2021/11/21 01:14:14;;;;;;;14.50;10.15;;;1.30;99.90;;;;;;5064595;28;20115;-72
2021/11/21 01:16:41;;;;;;;15.55;10.38;;;1.40;99.90;;;;;;5050433;28;20136;-73
2021/11/21 01:19:12;;;;;;;17.58;10.55;;;1.30;99.90;;;;;;5050088;28;20124;-75
2021/11/21 01:21:39;;;;;;;16.27;9.60;;;1.40;99.90;;;;;;5049947;28;20076;-73
2021/11/21 01:24:11;;;;;;;15.77;10.73;;;1.40;99.90;;;;;;5051188;28;20267;-73
2021/11/21 01:26:43;;;;;;;19.02;11.88;;;1.40;99.90;;;;;;5049880;28;20140;-73
2021/11/21 01:29:15;;;;;;;15.45;10.60;;;1.40;99.90;;;;;;5034140;28;20136;-75
2021/11/21 01:31:42;;;;;;;19.77;12.27;;;1.50;99.90;;;;;;5049913;28;20079;-73
2021/11/21 01:34:15;;;;;;;18.17;10.98;;;1.50;99.90;;;;;;5049946;28;20411;-73
2021/11/21 01:36:43;;;;;;;18.75;11.98;;;1.40;99.90;;;;;;5049746;28;20148;-73
2021/11/21 01:39:15;;;;;;;18.08;11.85;;;1.40;99.90;;;;;;5049939;28;20049;-73
2021/11/21 01:41:47;;;;;;;18.23;11.15;;;1.40;99.90;;;;;;5050085;28;20057;-73
2021/11/21 01:44:19;;;;;;;19.42;12.63;;;1.50;99.90;;;;;;5050048;28;20655;-74
2021/11/21 01:46:51;;;;;;;23.58;13.27;;;1.40;99.90;;;;;;5049830;28;20132;-76
2021/11/21 01:49:19;;;;;;;22.02;12.00;;;1.40;99.90;;;;;;5050091;28;20456;-73
2021/11/21 01:51:51;;;;;;;20.52;11.98;;;1.40;99.90;;;;;;5049891;28;20346;-73
2021/11/21 01:54:23;;;;;;;22.48;13.50;;;1.40;99.90;;;;;;5051231;28;20128;-75
2021/11/21 01:56:55;;;;;;;23.67;12.75;;;1.40;99.90;;;;;;5049394;28;20492;-75
2021/11/21 01:59:26;;;;;;;21.80;12.70;;;1.40;99.90;;;;;;5033967;28;20048;-75
2021/11/21 02:01:53;;;;;;;20.77;13.35;;;1.40;99.90;;;;;;5049216;28;20462;-75
2021/11/21 02:04:25;;;;;;;22.60;13.43;;;1.50;99.90;;;;;;5050876;28;20491;-75
2021/11/21 02:06:59;;;;;;;;;;;1.40;99.90;;;;;;5049118;28;20041;-72
2021/11/21 02:09:27;;;;;;;19.13;11.65;;;1.50;99.90;;;;;;5049467;28;19990;-72
2021/11/21 02:11:54;;;;;;;21.88;12.90;;;1.50;99.90;;;;;;5049530;28;20111;-73
2021/11/21 02:14:28;;;;;;;20.70;12.65;;;1.50;99.90;;;;;;5049984;28;20570;-73
2021/11/21 02:17:00;;;;;;;21.02;12.55;;;1.50;99.90;;;;;;5053550;28;20125;-73
2021/11/21 02:19:31;;;;;;;21.60;12.77;;;1.50;99.90;;;;;;5036690;28;20045;-75
2021/11/21 02:22:03;;;;;;;21.35;12.63;;;1.50;99.90;;;;;;5052621;28;20121;-72
2021/11/21 02:24:35;;;;;;;24.65;12.88;;;1.60;99.90;;;;;;5052670;28;20037;-73
2021/11/21 02:27:07;;;;;;;21.17;13.70;;;1.50;99.90;;;;;;5052810;28;20051;-73
2021/11/21 02:29:34;;;;;;;25.75;14.18;;;1.50;99.90;;;;;;5052936;28;20123;-73
2021/11/21 02:32:06;;;;;;;21.02;12.13;;;1.50;99.90;;;;;;5054090;28;20063;-73
2021/11/21 02:34:32;;;;;;;25.10;13.98;;;1.40;99.90;;;;;;5053031;28;20519;-73
2021/11/21 02:36:59;;;;;;;22.63;13.18;;;1.50;99.90;;;;;;5053835;28;20033;-73
2021/11/21 02:39:31;;;;;;;22.77;13.05;;;1.50;99.90;;;;;;5053060;28;20045;-73
2021/11/21 02:41:58;;;;;;;23.30;13.30;;;1.50;99.90;;;;;;5036094;28;20136;-73
2021/11/21 02:44:29;;;;;;;22.67;13.45;;;1.50;99.90;;;;;;5037006;28;20503;-73
2021/11/21 02:47:02;;;;;;;21.70;12.63;;;1.50;99.90;;;;;;5053877;28;20053;-73
2021/11/21 02:49:38;;;;;;;23.05;13.18;;;1.50;99.90;;;;;;5053388;28;20136;-75
2021/11/21 02:52:10;;;;;;;22.45;13.57;;;1.50;99.90;;;;;;5051916;28;20132;-73
2021/11/21 02:54:36;;;;;;;22.92;12.77;;;1.60;99.90;;;;;;5052693;28;20120;-73
2021/11/21 02:57:04;;;;;;;22.80;13.73;;;1.60;99.90;;;;;;5035598;28;20059;-73
2021/11/21 02:59:32;;;;;;;23.25;13.40;;;1.60;99.90;;;;;;5052606;28;20117;-73
2021/11/21 03:02:04;;;;;;;;;;;1.70;99.90;;;;;;5052593;28;20055;-72
2021/11/21 03:04:36;;;;;;;26.35;13.60;;;1.60;99.90;;;;;;5036827;28;20285;-74
2021/11/21 03:07:09;;;;;;;24.48;14.73;;;1.60;99.90;;;;;;5052043;28;20041;-72
2021/11/21 03:09:41;;;;;;;24.08;13.70;;;1.60;99.90;;;;;;5052248;28;20483;-73
2021/11/21 03:12:14;;;;;;;23.70;13.38;;;1.60;99.90;;;;;;5036496;28;20407;-73
2021/11/21 03:14:40;;;;;;;22.35;13.60;;;1.60;99.90;;;;;;5052182;28;20136;-75
2021/11/21 03:17:07;;;;;;;23.50;13.55;;;1.60;99.90;;;;;;5035315;28;20491;-72
2021/11/21 03:19:34;;;;;;;24.67;14.38;;;1.60;99.90;;;;;;5052104;28;20140;-73
2021/11/21 03:22:06;;;;;;;20.23;13.38;;;1.60;99.90;;;;;;5053112;28;20124;-73
2021/11/21 03:24:39;;;;;;;23.30;13.57;;;1.60;99.90;;;;;;5052340;28;20509;-75
2021/11/21 03:27:06;;;;;;;23.00;13.30;;;1.70;99.90;;;;;;5052861;28;20140;-72
2021/11/21 03:29:34;;;;;;;22.27;13.32;;;1.70;99.90;;;;;;5052998;28;20123;-73
2021/11/21 03:32:01;;;;;;;20.65;12.02;;;1.70;99.90;;;;;;5051704;28;20128;-73
2021/11/21 03:34:37;;;;;;;22.35;13.57;;;1.70;99.90;;;;;;5035922;28;20045;-72
2021/11/21 03:37:06;;;;;;;20.35;12.93;;;1.70;99.90;;;;;;5052764;28;20415;-73
2021/11/21 03:39:33;;;;;;;24.30;12.93;;;1.80;99.90;;;;;;5051671;28;20079;-75
2021/11/21 03:42:06;;;;;;;21.65;13.63;;;1.80;99.90;;;;;;5051527;28;20055;-75
2021/11/21 03:44:37;;;;;;;22.25;12.18;;;1.70;99.90;;;;;;5035817;28;20045;-75
2021/11/21 03:47:11;;;;;;;22.37;13.23;;;1.70;99.90;;;;;;5051269;28;20052;-73
2021/11/21 03:49:38;;;;;;;27.08;15.20;;;1.70;99.90;;;;;;5051418;28;20848;-73
2021/11/21 03:52:10;;;;;;;25.42;14.80;;;1.70;99.90;;;;;;5051423;28;20041;-73
2021/11/21 03:54:37;;;;;;;21.30;11.98;;;1.80;99.90;;;;;;5035092;28;20049;-73
2021/11/21 03:57:04;;;;;;;21.88;13.55;;;1.80;99.90;;;;;;5051064;28;20139;-73
2021/11/21 03:59:36;;;;;;;23.65;14.25;;;1.80;99.90;;;;;;5035663;28;20043;-73
2021/11/21 04:02:08;;;;;;;23.20;13.60;;;1.80;99.90;;;;;;5051325;28;20045;-72
2021/11/21 04:04:40;;;;;;;22.23;12.98;;;1.80;99.90;;;;;;5051440;28;20063;-74
2021/11/21 04:07:07;;;;;;;26.10;14.80;;;1.80;99.90;;;;;;5052198;28;20492;-75
2021/11/21 04:09:34;;;;;;;24.98;14.65;;;1.80;99.90;;;;;;5051096;28;20144;-73
2021/11/21 04:12:06;;;;;;;25.52;15.88;;;1.80;99.90;;;;;;5034928;28;20041;-73
2021/11/21 04:14:38;;;;;;;25.55;15.15;;;1.80;99.90;;;;;;5051231;28;20041;-73
2021/11/21 04:17:04;;;;;;;25.50;13.63;;;1.80;99.90;;;;;;5052055;28;20044;-72
2021/11/21 04:19:31;;;;;;;22.45;13.45;;;1.80;99.90;;;;;;5050951;28;20091;-73
2021/11/21 04:22:00;;;;;;;25.38;15.35;;;1.90;99.90;;;;;;5050834;28;20415;-75
2021/11/21 04:24:32;;;;;;;26.10;15.30;;;1.90;99.90;;;;;;5051265;28;20431;-73
2021/11/21 04:27:04;;;;;;;23.27;14.02;;;1.90;99.90;;;;;;5050750;28;20053;-75
2021/11/21 04:29:35;;;;;;;23.70;14.57;;;1.90;99.90;;;;;;5034903;28;20410;-74
2021/11/21 04:32:07;;;;;;;23.42;13.27;;;1.90;99.90;;;;;;5050785;28;20332;-73
2021/11/21 04:34:34;;;;;;;24.98;14.23;;;1.90;99.90;;;;;;5051946;28;20468;-73
2021/11/21 04:37:06;;;;;;;24.25;14.00;;;1.90;99.90;;;;;;5050269;28;20045;-73
2021/11/21 04:39:34;;;;;;;24.13;14.85;;;1.90;99.90;;;;;;5050616;28;20052;-74
2021/11/21 04:42:06;;;;;;;22.90;13.75;;;1.90;99.90;;;;;;5050439;28;20406;-73
2021/11/21 04:44:33;;;;;;;25.55;13.52;;;1.90;99.90;;;;;;5050636;28;20087;-75
2021/11/21 04:47:00;;;;;;;25.67;14.30;;;1.90;99.90;;;;;;5050406;28;20045;-75
2021/11/21 04:49:32;;;;;;;23.48;13.68;;;1.90;99.90;;;;;;5051719;28;20147;-73
2021/11/21 04:51:58;;;;;;;24.48;14.57;;;1.90;99.90;;;;;;5050244;28;20182;-75
2021/11/21 04:54:26;;;;;;;26.30;15.02;;;1.90;99.90;;;;;;5050572;28;20088;-75
2021/11/21 04:56:53;;;;;;;24.92;14.48;;;2.00;99.90;;;;;;5051393;28;20125;-73
2021/11/21 04:59:20;;;;;;;24.20;14.48;;;1.90;99.90;;;;;;5050226;28;20129;-73
2021/11/21 05:01:48;;;;;;;24.23;14.27;;;1.90;99.90;;;;;;5033796;28;20140;-73
2021/11/21 05:04:19;;;;;;;24.55;14.88;;;1.90;99.90;;;;;;5050115;28;20068;-74
2021/11/21 05:06:51;;;;;;;25.60;14.25;;;1.90;99.90;;;;;;5049901;28;20041;-75
2021/11/21 05:09:19;;;;;;;25.92;14.75;;;2.00;99.90;;;;;;5050424;28;20503;-73
2021/11/21 05:11:51;;;;;;;25.45;15.13;;;2.00;99.90;;;;;;5050119;28;20049;-73
2021/11/21 05:14:18;;;;;;;26.80;14.23;;;2.00;99.90;;;;;;5033669;28;20144;-73
2021/11/21 05:16:50;;;;;;;25.83;13.77;;;2.00;99.90;;;;;;5049766;28;20083;-75
2021/11/21 05:19:22;;;;;;;24.27;14.68;;;2.00;99.90;;;;;;5034326;28;20041;-73
2021/11/21 05:21:53;;;;;;;26.40;14.65;;;2.00;99.90;;;;;;5050113;28;20417;-75
2021/11/21 05:24:26;;;;;;;25.38;13.48;;;2.00;99.90;;;;;;5050284;28;20037;-73
2021/11/21 05:26:53;;;;;;;24.63;14.02;;;2.00;99.90;;;;;;5049778;28;20057;-73
2021/11/21 05:29:24;;;;;;;26.05;14.77;;;2.00;99.90;;;;;;5050103;28;20055;-74
2021/11/21 05:31:56;;;;;;;25.05;14.68;;;2.00;99.90;;;;;;5049742;28;20041;-73
2021/11/21 05:34:28;;;;;;;26.02;14.38;;;2.00;99.90;;;;;;5049939;28;20091;-73
2021/11/21 05:36:55;;;;;;;25.85;14.68;;;2.00;99.90;;;;;;5049778;28;20132;-73
2021/11/21 05:39:27;;;;;;;25.45;13.88;;;1.90;99.90;;;;;;5051376;28;20045;-75
2021/11/21 05:41:54;;;;;;;25.70;15.23;;;1.90;99.90;;;;;;5049763;28;20067;-75
2021/11/21 05:44:25;;;;;;;27.42;14.85;;;1.90;99.90;;;;;;5049905;28;20041;-73
2021/11/21 05:46:57;;;;;;;24.85;14.40;;;1.90;99.90;;;;;;5049736;28;20483;-73
2021/11/21 05:49:29;;;;;;;24.13;14.13;;;1.90;99.90;;;;;;5051949;28;20131;-72
2021/11/21 05:51:56;;;;;;;25.50;13.80;;;1.90;99.90;;;;;;5053608;28;20139;-73
2021/11/21 05:54:27;;;;;;;25.98;15.05;;;1.80;99.90;;;;;;5053699;28;20051;-73
2021/11/21 05:56:54;;;;;;;22.20;13.13;;;1.90;99.90;;;;;;5053481;28;20071;-73
2021/11/21 05:59:26;;;;;;;24.13;13.73;;;1.80;99.90;;;;;;5054822;28;20068;-73
2021/11/21 06:01:58;;;;;;;22.98;13.00;;;1.90;99.90;;;;;;5053338;28;20052;-73
2021/11/21 06:04:24;;;;;;;23.25;14.48;;;1.90;99.90;;;;;;5053574;28;20076;-73
2021/11/21 06:06:51;;;;;;;22.90;13.75;;;1.90;99.90;;;;;;5054348;28;20127;-73
2021/11/21 06:09:18;;;;;;;24.35;13.50;;;1.80;99.90;;;;;;5054806;28;20087;-72
2021/11/21 06:11:45;;;;;;;23.67;13.40;;;1.90;99.90;;;;;;5054992;28;20132;-73
2021/11/21 06:14:17;;;;;;;22.60;12.73;;;1.90;99.90;;;;;;5054614;28;20060;-73
2021/11/21 06:16:49;;;;;;;24.23;13.55;;;1.90;99.90;;;;;;5052984;28;20495;-73
2021/11/21 06:19:20;;;;;;;24.15;13.90;;;1.90;99.90;;;;;;5053090;28;20049;-73
2021/11/21 06:21:47;;;;;;;24.42;14.52;;;1.90;99.90;;;;;;5053258;28;20045;-75
2021/11/21 06:24:20;;;;;;;23.05;13.63;;;1.90;99.90;;;;;;5037394;28;20602;-73
2021/11/21 06:26:51;;;;;;;24.08;13.50;;;1.90;99.90;;;;;;5041281;28;20045;-72
2021/11/21 06:29:18;;;;;;;24.38;13.90;;;1.90;99.90;;;;;;5034195;28;20040;-73
2021/11/21 06:31:45;;;;;;;21.90;12.80;;;1.90;99.90;;;;;;5026617;28;20567;-73
2021/11/21 06:34:12;;;;;;;21.58;13.32;;;1.90;99.90;;;;;;5052791;28;20052;-72
2021/11/21 06:36:44;;;;;;;25.98;13.60;;;1.90;99.90;;;;;;5052717;28;20068;-72
2021/11/21 06:39:11;;;;;;;23.08;14.48;;;1.90;99.90;;;;;;5052790;28;20132;-75
2021/11/21 06:41:43;;;;;;;24.60;12.45;;;1.90;99.90;;;;;;5053362;28;20048;-74
2021/11/21 06:44:15;;;;;;;24.98;14.70;;;1.90;99.90;;;;;;5051840;28;20120;-73
2021/11/21 06:46:41;;;;;;;28.25;15.02;;;1.90;99.90;;;;;;5052342;28;20448;-73
2021/11/21 06:49:13;;;;;;;24.27;14.27;;;1.90;99.90;;;;;;5053908;28;20063;-73
2021/11/21 06:51:45;;;;;;;24.02;14.43;;;1.80;99.90;;;;;;5052406;28;20043;-73
2021/11/21 06:54:17;;;;;;;22.63;14.15;;;1.80;99.90;;;;;;5036655;28;20144;-72
2021/11/21 06:56:48;;;;;;;28.20;14.13;;;1.80;99.90;;;;;;5052399;28;20041;-73
2021/11/21 06:59:15;;;;;;;26.13;14.93;;;1.80;99.90;;;;;;5035938;28;20060;-71
2021/11/21 07:01:42;;;;;;;22.63;13.45;;;1.80;99.90;;;;;;5053432;28;20203;-75
2021/11/21 07:04:14;;;;;;;26.88;15.02;;;1.90;99.90;;;;;;5052212;28;20037;-73
2021/11/21 07:06:46;;;;;;;22.60;13.38;;;1.90;99.90;;;;;;5052192;28;20047;-72
2021/11/21 07:09:15;;;;;;;21.77;13.32;;;1.90;99.90;;;;;;5052356;28;20048;-73
2021/11/21 07:11:48;;;;;;;21.77;12.93;;;2.00;99.90;;;;;;5052801;28;20036;-73
2021/11/21 07:14:15;;;;;;;22.63;13.57;;;2.00;99.90;;;;;;5052111;28;20131;-73
2021/11/21 07:16:45;;;;;;;23.90;14.05;;;2.00;99.90;;;;;;5035394;28;20065;-73
2021/11/21 07:19:12;;;;;;;21.92;13.07;;;2.00;99.90;;;;;;5052558;28;20123;-73
2021/11/21 07:21:44;;;;;;;20.20;12.55;;;2.00;99.90;;;;;;5052508;28;20059;-73
2021/11/21 07:24:16;;;;;;;20.90;12.52;;;2.10;99.90;;;;;;5052126;28;20045;-73
2021/11/21 07:26:43;;;;;;;20.73;12.15;;;2.10;99.90;;;;;;5035142;28;20059;-73
2021/11/21 07:29:15;;;;;;;21.25;13.20;;;2.20;99.90;;;;;;5036235;28;20155;-73
2021/11/21 07:31:47;;;;;;;24.33;13.65;;;2.20;99.90;;;;;;5051726;28;20047;-73
2021/11/21 07:34:19;;;;;;;23.45;13.57;;;2.20;99.90;;;;;;5051561;28;20047;-73
2021/11/21 07:36:45;;;;;;;26.70;13.73;;;2.10;99.90;;;;;;5051777;28;20135;-73
2021/11/21 07:39:12;;;;;;;23.77;13.82;;;2.20;99.90;;;;;;5035339;28;20051;-73
2021/11/21 07:41:44;;;;;;;21.15;12.13;;;2.20;99.90;;;;;;5048893;28;20044;-73
2021/11/21 07:44:12;;;;;;;23.13;13.32;;;2.20;99.90;;;;;;5031492;28;20045;-72
2021/11/21 07:46:39;;;;;;;24.35;13.13;;;2.20;99.90;;;;;;5052115;28;20072;-73
2021/11/21 07:49:11;;;;;;;24.65;13.85;;;2.30;99.90;;;;;;5029904;28;20049;-73
2021/11/21 07:51:43;;;;;;;22.75;13.98;;;2.20;99.90;;;;;;5031269;28;20048;-72
2021/11/21 07:54:14;;;;;;;23.10;13.45;;;2.20;99.90;;;;;;5046207;28;20559;-76
2021/11/21 07:56:46;;;;;;;23.10;12.27;;;2.20;99.90;;;;;;5031653;28;20041;-76
2021/11/21 07:59:18;;;;;;;22.83;13.48;;;2.30;99.90;;;;;;5032200;28;20033;-73
2021/11/21 08:01:50;;;;;;;25.35;15.15;;;2.30;99.90;;;;;;5051954;28;20040;-72
2021/11/21 08:04:21;;;;;;;23.70;12.95;;;2.30;99.90;;;;;;5046229;28;20044;-72
2021/11/21 08:06:53;;;;;;;22.85;12.25;;;2.30;99.90;;;;;;5050515;28;20124;-73
2021/11/21 08:09:25;;;;;;;21.92;12.63;;;2.30;99.90;;;;;;5050930;28;20138;-73
2021/11/21 08:11:57;;;;;;;23.27;13.73;;;2.40;99.90;;;;;;5048620;28;20041;-73
2021/11/21 08:14:23;;;;;;;26.60;16.17;;;2.40;99.90;;;;;;5049430;28;20466;-73
2021/11/21 08:16:50;;;;;;;22.83;13.57;;;2.40;99.90;;;;;;5058763;28;20136;-71
2021/11/21 08:19:17;;;;;;;21.10;13.02;;;2.40;99.90;;;;;;5030075;28;20484;-71
2021/11/21 08:21:44;;;;;;;24.45;14.90;;;2.40;99.90;;;;;;5046563;28;20127;-73
2021/11/21 08:24:15;;;;;;;22.30;12.75;;;2.50;99.90;;;;;;5069913;28;20053;-73
2021/11/21 08:26:47;;;;;;;20.77;13.00;;;2.50;99.90;;;;;;5067991;28;20045;-74
2021/11/21 08:29:14;;;;;;;20.00;12.98;;;2.60;99.90;;;;;;5030920;28;20034;-73
2021/11/21 08:31:42;;;;;;;24.92;13.27;;;2.60;99.90;;;;;;5028712;28;20395;-73
2021/11/21 08:34:14;;;;;;;21.70;13.25;;;2.70;99.90;;;;;;5031189;28;20606;-73
2021/11/21 08:36:41;;;;;;;24.58;12.93;;;2.70;99.90;;;;;;5012927;28;20140;-73
2021/11/21 08:39:13;;;;;;;20.63;12.13;;;2.70;99.90;;;;;;5029231;28;20043;-75
2021/11/21 08:41:45;;;;;;;18.70;11.20;;;2.80;99.90;;;;;;5029192;28;20427;-73
2021/11/21 08:44:17;;;;;;;20.70;13.00;;;2.70;99.90;;;;;;5041080;28;20041;-73
2021/11/21 08:46:44;;;;;;;19.38;12.13;;;2.70;99.90;;;;;;5049762;28;20055;-73
2021/11/21 08:49:17;;;;;;;20.33;11.82;;;2.70;99.90;;;;;;5049479;28;20041;-72
2021/11/21 08:51:49;;;;;;;21.60;12.77;;;2.70;99.90;;;;;;5045951;28;20043;-73
2021/11/21 08:54:17;;;;;;;21.27;12.30;;;2.70;99.90;;;;;;5046993;28;20033;-73
2021/11/21 08:56:45;;;;;;;19.85;12.25;;;2.80;99.90;;;;;;5047598;28;20553;-73
2021/11/21 08:59:19;;;;;;;26.48;12.93;;;2.90;99.90;;;;;;5032388;28;20043;-71
2021/11/21 09:01:51;;;;;;;;;;;3.00;99.90;;;;;;5048663;28;20415;-73
2021/11/21 09:04:18;;;;;;;20.52;12.35;;;3.00;99.90;;;;;;5048756;28;20302;-72
2021/11/21 09:06:50;;;;;;;22.42;12.95;;;3.00;99.90;;;;;;5031822;28;20045;-75
2021/11/21 09:09:22;;;;;;;20.10;11.05;;;3.00;99.90;;;;;;5046928;28;20132;-73
2021/11/21 09:11:54;;;;;;;21.35;12.57;;;3.00;99.90;;;;;;5028988;28;20037;-74
2021/11/21 09:14:26;;;;;;;20.45;11.75;;;3.10;99.90;;;;;;5036937;28;20128;-73
2021/11/21 09:16:58;;;;;;;22.63;13.80;;;3.10;99.90;;;;;;5037209;28;20503;-72
2021/11/21 09:19:25;;;;;;;18.45;12.60;;;3.30;99.90;;;;;;5050352;28;20523;-73
2021/11/21 09:21:56;;;;;;;18.65;11.93;;;3.30;99.90;;;;;;5049101;28;20041;-73
2021/11/21 09:24:28;;;;;;;20.88;12.32;;;3.30;99.90;;;;;;5049150;28;20639;-73
2021/11/21 09:27:00;;;;;;;19.95;11.65;;;3.30;99.90;;;;;;5054140;28;20124;-72
2021/11/21 09:29:32;;;;;;;20.17;11.88;;;3.30;99.90;;;;;;5050009;28;20044;-76
2021/11/21 09:31:59;;;;;;;18.05;11.13;;;3.40;99.90;;;;;;5034490;28;20071;-74
2021/11/21 09:34:30;;;;;;;16.67;11.27;;;3.50;99.90;;;;;;5047360;28;20128;-75
2021/11/21 09:36:57;;;;;;;16.40;11.02;;;3.50;99.90;;;;;;5031785;28;20068;-74
2021/11/21 09:39:24;;;;;;;18.13;11.00;;;3.60;99.90;;;;;;5032820;28;20550;-73
2021/11/21 09:41:51;;;;;;;18.33;12.35;;;3.60;99.90;;;;;;5015689;28;20059;-74
2021/11/21 09:44:24;;;;;;;20.52;11.80;;;3.70;99.90;;;;;;5033166;28;20052;-74
2021/11/21 09:46:54;;;;;;;18.83;11.30;;;3.70;99.90;;;;;;5032292;28;20083;-72
2021/11/21 09:49:24;;;;;;;16.98;11.18;;;3.70;99.90;;;;;;5032871;28;20450;-73
2021/11/21 09:51:51;;;;;;;16.35;10.55;;;3.70;99.90;;;;;;5032535;28;20571;-73
2021/11/21 09:54:27;;;;;;;16.42;10.02;;;3.80;99.90;;;;;;5033442;28;20399;-73
2021/11/21 09:56:59;;;;;;;17.23;11.15;;;3.80;99.90;;;;;;5027931;28;20100;-74
2021/11/21 10:00:00;;;;;;;15.98;10.63;;;3.90;99.90;;;;;;5025563;28;20069;-74
2021/11/21 10:02:38;;;;;;;17.58;10.57;;;4.00;99.90;;;;;;5003162;28;20579;-73
2021/11/21 10:05:22;;;;;;;17.80;12.13;;;4.00;99.90;;;;;;5016643;28;20460;-74
2021/11/21 10:08:17;;;;;;;16.50;9.68;;;4.10;99.90;;;;;;5031416;28;20359;-73
2021/11/21 10:10:59;;;;;;;15.55;9.88;;;4.10;99.90;;;;;;5016024;28;20589;-73
2021/11/21 10:13:36;;;;;;;17.23;10.75;;;4.20;99.90;;;;;;5037951;28;20116;-73
2021/11/21 10:16:17;;;;;;;14.80;9.85;;;4.30;99.90;;;;;;5016108;28;20040;-71
2021/11/21 10:18:46;;;;;;;15.30;10.27;;;4.30;99.90;;;;;;5052069;28;20205;-73
2021/11/21 10:21:14;;;;;;;15.73;9.90;;;4.30;99.90;;;;;;5051521;28;20071;-74
2021/11/21 10:23:46;;;;;;;15.48;9.70;;;4.30;99.90;;;;;;5036550;28;20087;-74
2021/11/21 10:26:24;;;;;;;16.67;10.52;;;4.30;99.90;;;;;;5048352;28;20495;-74
2021/11/21 10:28:56;;;;;;;14.90;9.83;;;4.30;99.90;;;;;;5050602;28;20041;-75
2021/11/21 10:31:23;;;;;;;15.23;10.10;;;4.30;99.90;;;;;;5052286;28;20378;-74
2021/11/21 10:33:59;;;;;;;14.25;9.48;;;4.30;99.90;;;;;;5052552;28;20464;-74
2021/11/21 10:36:38;;;;;;;14.65;9.45;;;4.30;99.90;;;;;;5051766;28;20043;-73
2021/11/21 10:39:09;;;;;;;13.05;8.63;;;4.30;99.90;;;;;;5053709;28;20048;-75
2021/11/21 10:41:41;;;;;;;12.13;8.48;;;4.40;99.90;;;;;;5053466;28;20064;-75
2021/11/21 10:44:21;;;;;;;17.58;9.93;;;4.50;99.90;;;;;;5052327;28;20037;-72
2021/11/21 10:46:57;;;;;;;15.35;9.98;;;4.60;99.90;;;;;;5030686;28;20186;-74
2021/11/21 10:49:33;;;;;;;13.32;8.63;;;4.60;99.90;;;;;;5020015;28;20037;-74
2021/11/21 10:52:02;;;;;;;15.70;10.60;;;4.60;99.90;;;;;;5040959;28;20064;-73
2021/11/21 10:54:32;;;;;;;18.05;10.30;;;4.70;99.90;;;;;;5048215;28;20539;-73
2021/11/21 10:57:02;;;;;;;15.48;9.95;;;4.70;99.90;;;;;;5032580;28;20136;-73
2021/11/21 10:59:37;;;;;;;18.35;11.27;;;4.70;99.90;;;;;;5032126;28;20068;-74
2021/11/21 11:02:33;;;;;;;13.68;9.40;;;4.70;99.90;;;;;;5048078;28;20116;-73
2021/11/21 11:05:12;;;;;;;15.20;9.93;;;4.70;99.90;;;;;;5045003;28;20470;-74
2021/11/21 11:07:47;;;;;;;;;;;4.70;99.90;;;;;;5051905;28;20041;-74
2021/11/21 11:10:23;;;;;;;17.00;10.50;;;4.70;99.90;;;;;;5052782;28;19956;-74
2021/11/21 11:13:03;;;;;;;15.43;10.15;;;4.60;99.90;;;;;;5052618;28;20041;-74
2021/11/21 11:15:37;;;;;;;16.85;10.27;;;4.60;99.90;;;;;;5051946;28;20419;-74
2021/11/21 11:18:06;;;;;;;16.92;10.40;;;4.50;99.90;;;;;;5051661;28;20133;-75
2021/11/21 11:20:40;;;;;;;17.20;11.38;;;4.50;99.90;;;;;;5051465;28;20083;-74
2021/11/21 11:23:15;;;;;;;17.83;11.48;;;4.50;99.90;;;;;;5035713;28;20135;-74
2021/11/21 11:25:44;;;;;;;17.40;10.88;;;4.50;99.90;;;;;;5051343;28;20131;-74
2021/11/21 11:28:12;;;;;;;19.90;10.93;;;4.50;99.90;;;;;;5050863;28;20106;-74
2021/11/21 11:30:40;;;;;;;19.27;12.07;;;4.50;99.90;;;;;;5051438;28;20076;-74
2021/11/21 11:33:15;;;;;;;17.13;11.30;;;4.50;99.90;;;;;;5051552;28;20116;-75
2021/11/21 11:35:49;;;;;;;16.13;9.95;;;4.50;99.90;;;;;;5051467;28;20123;-73
2021/11/21 11:38:27;;;;;;;18.52;10.82;;;4.50;99.90;;;;;;5050866;28;20043;-73
2021/11/21 11:41:03;;;;;;;15.35;9.93;;;4.50;99.90;;;;;;5052301;28;20495;-74
2021/11/21 11:43:47;;;;;;;15.82;10.63;;;4.50;99.90;;;;;;5052475;28;20049;-74
2021/11/21 11:46:14;;;;;;;15.10;10.25;;;4.50;99.90;;;;;;5050733;28;20103;-74
2021/11/21 11:48:46;;;;;;;13.63;9.10;;;4.50;99.90;;;;;;5051194;28;20123;-73
2021/11/21 11:51:36;;;;;;;17.52;12.88;;;4.50;99.90;;;;;;5044094;28;20083;-74
2021/11/21 11:54:14;;;;;;;17.60;11.07;;;4.50;99.90;;;;;;5029802;28;20033;-74
2021/11/21 11:56:49;;;;;;;18.15;10.95;;;4.50;99.90;;;;;;5048691;28;20153;-74
2021/11/21 11:59:31;;;;;;;20.13;12.82;;;4.50;99.90;;;;;;5049062;28;20117;-74
2021/11/21 12:02:07;;;;;;;17.60;11.85;;;4.40;99.90;;;;;;5043232;28;20124;-74
2021/11/21 12:04:39;;;;;;;15.57;10.93;;;4.50;99.90;;;;;;5050727;28;20148;-74
2021/11/21 12:07:17;;;;;;;17.45;11.00;;;4.60;99.90;;;;;;5032060;28;20041;-73
2021/11/21 12:10:08;;;;;;;16.43;10.83;;;4.60;99.90;;;;;;5022831;28;20054;-74
2021/11/21 12:13:02;;;;;;;17.05;10.45;;;4.60;99.90;;;;;;5047538;28;20382;-74
2021/11/21 12:15:43;;;;;;;16.40;10.30;;;4.50;99.90;;;;;;5037078;28;20128;-73
2021/11/21 12:18:10;;;;;;;17.25;10.82;;;4.40;99.90;;;;;;5031818;28;20045;-73
2021/11/21 12:20:48;;;;;;;16.63;10.48;;;4.30;99.90;;;;;;5029844;28;20041;-74
2021/11/21 12:23:42;;;;;;;19.33;10.95;;;4.20;99.90;;;;;;5034896;28;20498;-74
2021/11/21 12:26:26;;;;;;;16.90;11.23;;;4.20;99.90;;;;;;5044489;28;20068;-75
2021/11/21 12:29:10;;;;;;;17.40;11.25;;;4.30;99.90;;;;;;5026787;28;20063;-73
2021/11/21 12:31:40;;;;;;;18.38;11.48;;;4.30;99.90;;;;;;5050473;28;20099;-74
2021/11/21 12:34:48;;;;;;;17.27;10.80;;;4.30;99.90;;;;;;5051528;28;20041;-73
2021/11/21 12:37:30;;;;;;;16.95;10.68;;;4.20;99.90;;;;;;5012558;28;20045;-74
2021/11/21 12:40:12;;;;;;;16.65;10.70;;;4.20;99.90;;;;;;5048159;28;20086;-75
2021/11/21 12:42:45;;;;;;;18.65;12.02;;;4.20;99.90;;;;;;5034676;28;20127;-74
2021/11/21 12:45:19;;;;;;;17.98;12.02;;;4.20;99.90;;;;;;5040612;28;20042;-74
2021/11/21 12:47:53;;;;;;;20.98;11.68;;;4.10;99.90;;;;;;5029028;28;20094;-74
2021/11/21 12:50:28;;;;;;;19.80;11.40;;;4.10;99.90;;;;;;5031320;28;20090;-73
2021/11/21 12:53:21;;;;;;;19.65;12.23;;;4.00;99.90;;;;;;5045199;28;20069;-74
2021/11/21 12:55:56;;;;;;;18.13;12.05;;;4.00;99.90;;;;;;5033365;28;20059;-74
2021/11/21 12:58:36;;;;;;;17.83;11.00;;;4.00;99.90;;;;;;5028217;28;20104;-73
2021/11/21 13:01:12;;;;;;;18.65;11.75;;;4.30;99.90;;;;;;5040968;28;20041;-74
2021/11/21 13:03:44;;;;;;;21.80;12.57;;;4.30;99.90;;;;;;5042911;28;20090;-74